메인 페이지
METAR-TAF:

METAR-TAF

공항 :

코모도로 아르투로 메리노 베니테스 국제공항

산티아고, 칠레

위도: 33-23S, 경도: 070-47W, 고도: 475m

현재 날씨관측

예보는 3 시간 33분 전, 22:00시(UTC)에 발표되었습니다.
7kt
온도 26°C
습도 24%
기압 1015 hPa
시정 10km 이상
1500m 미만 상공 구름 및 적란운 없음

METAR: SCEL 172200Z 17007KT CAVOK 26/04 Q1015 NOSIG

시각: 21:33 (01:33 UTC)

예보

예보는 9 시간 3분 전, 16:30시(UTC)에 발표되었습니다.
예보 대상 시간: 17일 18시부터 18일 18시까지 (UTC)
서남서5kt
시정 10km 이상
1500m 미만 상공 구름 및 적란운 없음
전환 중
17일 19시부터 17일 21시까지 (UTC)
12kt
전환 중
18일 01시부터 18일 03시까지 (UTC)
남남동4kt
전환 중
18일 06시부터 18일 08시까지 (UTC)
여러 방향의 바람 2kt
일시적
18일 10시부터 18일 14시까지 (UTC)
4kt
시정: 4000m
연무,

TAF: SCEL 171630Z 1718/1818 24005KT CAVOK TX27/1719Z TN09/1810Z BECMG 1719/1721 18012KT BECMG 1801/1803 15004KT BECMG 1806/1808 VRB02KT TEMPO 1810/1814 01004KT 4000 HZ NSC

4,000개 이상의 공항 관측 자료 및 예보 (METAR 및 TAF 보고).

지도상에서 검색 가능한 기상관측소가 노란 점과 빨간 점으로 표시되어 있습니다.

기상관측소 명을 보려면 표시 위로 마우스를 이동하세요.

날씨 관측과 예보를 보려면 클릭하세요.

지도 변경 : 확대하려면 엑스 표시가 있는 녹색 버튼, 축소하려면 빼기 표시가 있는 녹색 버튼, 다음 페이지의 지도를 보려면 녹색 화살표를 클릭하세요.


METAR-TAF: